CJW3 weather

Loon Lake Airport
Loon Lake, Saskatchewan, Canada

Public forecast

Using degrees Celsius for public forecast. Weather courtesy of forecast.io.

Closest aviation weather report (METAR) to Loon Lake Airport

Closest report is Meadow Lake Airport, 22.5 nm (41.7 km) ENE. Retrieved 2019/12/09 15:00 UTC (21 minutes ago):

CYLJ 091500Z 04008KT 15SM FEW025 M19/M22 A3010 RMK SC1 SLP242

Closest aviation forecast (TAF) to Loon Lake Airport

Closest forecast is CFB Cold Lake, 46.4 nm (85.9 km) WNW. Retrieved 2019/12/09 12:35 UTC (3 hours ago):

TAF CYOD 091130Z 0912/1012 36012G22KT P6SM SCT015 BKN025 TEMPO 0912/0913 P6SM -SHSN BKN015 OVC025 FM091300 34005KT P6SM FEW025 SCT200 TEMPO 0913/0914 BKN025 FM091800 VRB03KT P6SM SKC FM100600 25005KT P6SM FEW012 RMK NXT FCST BY 091800Z